sensor_id;sensor_type;location;lat;lon;timestamp;P1;durP1;ratioP1;P2;durP2;ratioP2
50337;SDS011;46221;51.178;5.900;2022-11-13T00:01:10;7.88;;;5.50;;
50337;SDS011;46221;51.178;5.900;2022-11-13T00:03:37;8.13;;;5.03;;
50337;SDS011;46221;51.178;5.900;2022-11-13T00:06:03;7.63;;;5.65;;
50337;SDS011;46221;51.178;5.900;2022-11-13T00:08:29;7.32;;;5.43;;
50337;SDS011;46221;51.178;5.900;2022-11-13T00:11:00;7.55;;;5.07;;
50337;SDS011;46221;51.178;5.900;2022-11-13T00:13:27;6.72;;;5.00;;
50337;SDS011;46221;51.178;5.900;2022-11-13T00:15:56;7.78;;;5.32;;
50337;SDS011;46221;51.178;5.900;2022-11-13T00:18:23;7.18;;;5.20;;
50337;SDS011;46221;51.178;5.900;2022-11-13T00:20:49;9.43;;;6.28;;
50337;SDS011;46221;51.178;5.900;2022-11-13T00:23:15;8.07;;;5.07;;
50337;SDS011;46221;51.178;5.900;2022-11-13T00:25:41;7.72;;;5.20;;
50337;SDS011;46221;51.178;5.900;2022-11-13T00:28:08;7.93;;;5.10;;
50337;SDS011;46221;51.178;5.900;2022-11-13T00:30:34;7.05;;;5.25;;
50337;SDS011;46221;51.178;5.900;2022-11-13T00:33:00;7.70;;;5.10;;
50337;SDS011;46221;51.178;5.900;2022-11-13T00:35:26;6.90;;;5.30;;
50337;SDS011;46221;51.178;5.900;2022-11-13T00:37:53;8.57;;;5.25;;
50337;SDS011;46221;51.178;5.900;2022-11-13T00:40:19;6.40;;;4.60;;
50337;SDS011;46221;51.178;5.900;2022-11-13T00:42:46;6.55;;;5.05;;
50337;SDS011;46221;51.178;5.900;2022-11-13T00:45:12;6.45;;;4.68;;
50337;SDS011;46221;51.178;5.900;2022-11-13T00:47:39;7.22;;;5.03;;
50337;SDS011;46221;51.178;5.900;2022-11-13T00:50:05;7.72;;;4.75;;
50337;SDS011;46221;51.178;5.900;2022-11-13T00:52:31;7.95;;;5.40;;
50337;SDS011;46221;51.178;5.900;2022-11-13T00:54:58;7.45;;;5.28;;
50337;SDS011;46221;51.178;5.900;2022-11-13T00:57:24;7.55;;;4.88;;
50337;SDS011;46221;51.178;5.900;2022-11-13T00:59:50;7.38;;;4.95;;
50337;SDS011;46221;51.178;5.900;2022-11-13T01:02:16;8.43;;;5.75;;
50337;SDS011;46221;51.178;5.900;2022-11-13T01:04:43;7.15;;;5.35;;
50337;SDS011;46221;51.178;5.900;2022-11-13T01:07:09;6.95;;;5.47;;
50337;SDS011;46221;51.178;5.900;2022-11-13T01:09:35;8.50;;;5.25;;
50337;SDS011;46221;51.178;5.900;2022-11-13T01:12:02;8.55;;;5.60;;
50337;SDS011;46221;51.178;5.900;2022-11-13T01:14:28;7.20;;;4.75;;
50337;SDS011;46221;51.178;5.900;2022-11-13T01:16:54;8.10;;;5.30;;
50337;SDS011;46221;51.178;5.900;2022-11-13T01:19:20;7.63;;;5.47;;
50337;SDS011;46221;51.178;5.900;2022-11-13T01:21:47;7.90;;;5.35;;
50337;SDS011;46221;51.178;5.900;2022-11-13T01:24:13;8.32;;;5.40;;
50337;SDS011;46221;51.178;5.900;2022-11-13T01:26:39;7.50;;;5.47;;
50337;SDS011;46221;51.178;5.900;2022-11-13T01:29:05;6.88;;;5.13;;
50337;SDS011;46221;51.178;5.900;2022-11-13T01:31:32;9.48;;;5.45;;
50337;SDS011;46221;51.178;5.900;2022-11-13T01:33:58;7.75;;;5.13;;
50337;SDS011;46221;51.178;5.900;2022-11-13T01:36:26;9.30;;;5.50;;
50337;SDS011;46221;51.178;5.900;2022-11-13T01:38:53;7.75;;;5.82;;
50337;SDS011;46221;51.178;5.900;2022-11-13T01:41:21;7.63;;;5.18;;
50337;SDS011;46221;51.178;5.900;2022-11-13T01:43:49;6.75;;;4.78;;
50337;SDS011;46221;51.178;5.900;2022-11-13T01:48:50;8.00;;;4.95;;
50337;SDS011;46221;51.178;5.900;2022-11-13T01:51:20;6.75;;;4.88;;
50337;SDS011;46221;51.178;5.900;2022-11-13T01:53:48;8.13;;;5.55;;
50337;SDS011;46221;51.178;5.900;2022-11-13T01:56:14;7.97;;;5.32;;
50337;SDS011;46221;51.178;5.900;2022-11-13T01:58:41;6.80;;;5.15;;
50337;SDS011;46221;51.178;5.900;2022-11-13T02:01:09;6.65;;;4.25;;
50337;SDS011;46221;51.178;5.900;2022-11-13T02:03:35;6.00;;;4.30;;
50337;SDS011;46221;51.178;5.900;2022-11-13T02:06:01;5.30;;;4.45;;
50337;SDS011;46221;51.178;5.900;2022-11-13T02:08:27;6.68;;;4.40;;
50337;SDS011;46221;51.178;5.900;2022-11-13T02:10:54;6.07;;;4.40;;
50337;SDS011;46221;51.178;5.900;2022-11-13T02:13:21;7.50;;;4.55;;
50337;SDS011;46221;51.178;5.900;2022-11-13T02:15:47;5.70;;;4.18;;
50337;SDS011;46221;51.178;5.900;2022-11-13T02:18:14;6.75;;;4.65;;
50337;SDS011;46221;51.178;5.900;2022-11-13T02:23:34;6.80;;;4.55;;
50337;SDS011;46221;51.178;5.900;2022-11-13T02:26:04;5.88;;;4.05;;
50337;SDS011;46221;51.178;5.900;2022-11-13T02:28:30;5.43;;;4.18;;
50337;SDS011;46221;51.178;5.900;2022-11-13T02:30:57;6.18;;;4.65;;
50337;SDS011;46221;51.178;5.900;2022-11-13T02:33:31;6.95;;;3.58;;
50337;SDS011;46221;51.178;5.900;2022-11-13T02:35:57;6.20;;;3.70;;
50337;SDS011;46221;51.178;5.900;2022-11-13T02:38:24;6.15;;;4.22;;
50337;SDS011;46221;51.178;5.900;2022-11-13T02:40:51;6.57;;;4.22;;
50337;SDS011;46221;51.178;5.900;2022-11-13T02:43:17;7.90;;;3.70;;
50337;SDS011;46221;51.178;5.900;2022-11-13T02:45:43;5.93;;;4.00;;
50337;SDS011;46221;51.178;5.900;2022-11-13T02:48:09;5.55;;;3.97;;
50337;SDS011;46221;51.178;5.900;2022-11-13T02:50:36;5.85;;;4.10;;
50337;SDS011;46221;51.178;5.900;2022-11-13T02:53:02;6.45;;;4.05;;
50337;SDS011;46221;51.178;5.900;2022-11-13T02:55:29;5.72;;;3.92;;
50337;SDS011;46221;51.178;5.900;2022-11-13T02:57:55;5.93;;;3.60;;
50337;SDS011;46221;51.178;5.900;2022-11-13T03:00:21;4.45;;;3.55;;
50337;SDS011;46221;51.178;5.900;2022-11-13T03:02:48;5.80;;;3.60;;
50337;SDS011;46221;51.178;5.900;2022-11-13T03:05:14;4.90;;;3.78;;
50337;SDS011;46221;51.178;5.900;2022-11-13T03:07:40;5.90;;;3.45;;
50337;SDS011;46221;51.178;5.900;2022-11-13T03:10:07;4.53;;;3.63;;
50337;SDS011;46221;51.178;5.900;2022-11-13T03:12:34;4.78;;;3.50;;
50337;SDS011;46221;51.178;5.900;2022-11-13T03:15:00;5.82;;;3.42;;
50337;SDS011;46221;51.178;5.900;2022-11-13T03:17:29;4.55;;;3.38;;
50337;SDS011;46221;51.178;5.900;2022-11-13T03:19:55;5.28;;;3.17;;
50337;SDS011;46221;51.178;5.900;2022-11-13T03:22:21;6.03;;;4.03;;
50337;SDS011;46221;51.178;5.900;2022-11-13T03:24:48;5.20;;;3.35;;
50337;SDS011;46221;51.178;5.900;2022-11-13T03:27:14;6.22;;;3.30;;
50337;SDS011;46221;51.178;5.900;2022-11-13T03:29:40;5.13;;;3.35;;
50337;SDS011;46221;51.178;5.900;2022-11-13T03:32:06;5.38;;;3.30;;
50337;SDS011;46221;51.178;5.900;2022-11-13T03:34:33;4.78;;;3.50;;
50337;SDS011;46221;51.178;5.900;2022-11-13T03:36:59;5.53;;;3.60;;
50337;SDS011;46221;51.178;5.900;2022-11-13T03:39:25;5.55;;;3.70;;
50337;SDS011;46221;51.178;5.900;2022-11-13T03:41:51;4.88;;;3.33;;
50337;SDS011;46221;51.178;5.900;2022-11-13T03:44:18;5.82;;;3.63;;
50337;SDS011;46221;51.178;5.900;2022-11-13T03:46:44;4.75;;;3.30;;
50337;SDS011;46221;51.178;5.900;2022-11-13T03:49:10;5.07;;;3.65;;
50337;SDS011;46221;51.178;5.900;2022-11-13T03:51:36;4.80;;;3.50;;
50337;SDS011;46221;51.178;5.900;2022-11-13T03:54:03;5.80;;;3.63;;
50337;SDS011;46221;51.178;5.900;2022-11-13T03:56:29;5.88;;;3.55;;
50337;SDS011;46221;51.178;5.900;2022-11-13T03:58:55;5.07;;;3.30;;
50337;SDS011;46221;51.178;5.900;2022-11-13T04:01:21;5.30;;;2.97;;
50337;SDS011;46221;51.178;5.900;2022-11-13T04:03:48;4.60;;;3.20;;
50337;SDS011;46221;51.178;5.900;2022-11-13T04:06:14;5.85;;;3.20;;
50337;SDS011;46221;51.178;5.900;2022-11-13T04:08:40;4.60;;;3.30;;
50337;SDS011;46221;51.178;5.900;2022-11-13T04:11:07;5.18;;;3.05;;
50337;SDS011;46221;51.178;5.900;2022-11-13T04:13:34;4.90;;;3.20;;
50337;SDS011;46221;51.178;5.900;2022-11-13T04:16:00;4.40;;;3.28;;
50337;SDS011;46221;51.178;5.900;2022-11-13T04:18:26;4.82;;;3.22;;
50337;SDS011;46221;51.178;5.900;2022-11-13T04:21:00;5.70;;;3.25;;
50337;SDS011;46221;51.178;5.900;2022-11-13T04:23:26;4.88;;;3.50;;
50337;SDS011;46221;51.178;5.900;2022-11-13T04:25:53;5.18;;;3.10;;
50337;SDS011;46221;51.178;5.900;2022-11-13T04:28:19;4.75;;;3.30;;
50337;SDS011;46221;51.178;5.900;2022-11-13T04:30:46;4.45;;;3.22;;
50337;SDS011;46221;51.178;5.900;2022-11-13T04:33:12;5.03;;;3.20;;
50337;SDS011;46221;51.178;5.900;2022-11-13T04:35:38;4.10;;;3.10;;
50337;SDS011;46221;51.178;5.900;2022-11-13T04:38:06;4.38;;;3.08;;
50337;SDS011;46221;51.178;5.900;2022-11-13T04:40:33;5.50;;;3.05;;
50337;SDS011;46221;51.178;5.900;2022-11-13T04:42:59;4.82;;;3.22;;
50337;SDS011;46221;51.178;5.900;2022-11-13T04:45:25;4.03;;;2.90;;
50337;SDS011;46221;51.178;5.900;2022-11-13T04:47:52;5.20;;;3.17;;
50337;SDS011;46221;51.178;5.900;2022-11-13T04:50:18;5.13;;;2.90;;
50337;SDS011;46221;51.178;5.900;2022-11-13T04:52:45;4.88;;;2.80;;
50337;SDS011;46221;51.178;5.900;2022-11-13T04:55:12;5.90;;;3.10;;
50337;SDS011;46221;51.178;5.900;2022-11-13T04:57:38;4.95;;;2.80;;
50337;SDS011;46221;51.178;5.900;2022-11-13T05:00:05;3.78;;;2.70;;
50337;SDS011;46221;51.178;5.900;2022-11-13T05:02:33;4.75;;;3.03;;
50337;SDS011;46221;51.178;5.900;2022-11-13T05:05:02;4.47;;;2.88;;
50337;SDS011;46221;51.178;5.900;2022-11-13T05:07:30;5.47;;;2.92;;
50337;SDS011;46221;51.178;5.900;2022-11-13T05:09:56;5.47;;;3.28;;
50337;SDS011;46221;51.178;5.900;2022-11-13T05:12:23;6.07;;;3.20;;
50337;SDS011;46221;51.178;5.900;2022-11-13T05:14:49;9.82;;;3.00;;
50337;SDS011;46221;51.178;5.900;2022-11-13T05:17:15;4.65;;;3.08;;
50337;SDS011;46221;51.178;5.900;2022-11-13T05:19:42;4.22;;;2.63;;
50337;SDS011;46221;51.178;5.900;2022-11-13T05:22:08;5.03;;;2.72;;
50337;SDS011;46221;51.178;5.900;2022-11-13T05:24:34;5.72;;;2.80;;
50337;SDS011;46221;51.178;5.900;2022-11-13T05:27:01;4.18;;;2.78;;
50337;SDS011;46221;51.178;5.900;2022-11-13T05:29:27;3.95;;;2.50;;
50337;SDS011;46221;51.178;5.900;2022-11-13T05:31:53;4.32;;;2.78;;
50337;SDS011;46221;51.178;5.900;2022-11-13T05:34:19;4.25;;;2.53;;
50337;SDS011;46221;51.178;5.900;2022-11-13T05:36:46;6.20;;;3.30;;
50337;SDS011;46221;51.178;5.900;2022-11-13T05:39:12;3.88;;;2.83;;
50337;SDS011;46221;51.178;5.900;2022-11-13T05:41:38;4.45;;;2.78;;
50337;SDS011;46221;51.178;5.900;2022-11-13T05:44:05;5.22;;;3.00;;
50337;SDS011;46221;51.178;5.900;2022-11-13T05:46:31;4.90;;;3.00;;
50337;SDS011;46221;51.178;5.900;2022-11-13T05:48:58;4.22;;;2.67;;
50337;SDS011;46221;51.178;5.900;2022-11-13T05:51:26;5.25;;;2.78;;
50337;SDS011;46221;51.178;5.900;2022-11-13T05:53:53;4.72;;;2.58;;
50337;SDS011;46221;51.178;5.900;2022-11-13T05:56:23;5.03;;;3.13;;
50337;SDS011;46221;51.178;5.900;2022-11-13T05:58:50;4.07;;;2.67;;
50337;SDS011;46221;51.178;5.900;2022-11-13T06:01:18;4.20;;;2.70;;
50337;SDS011;46221;51.178;5.900;2022-11-13T06:03:45;4.20;;;2.92;;
50337;SDS011;46221;51.178;5.900;2022-11-13T06:06:17;5.65;;;2.80;;
50337;SDS011;46221;51.178;5.900;2022-11-13T06:08:44;5.07;;;2.63;;
50337;SDS011;46221;51.178;5.900;2022-11-13T06:11:11;5.95;;;2.60;;
50337;SDS011;46221;51.178;5.900;2022-11-13T06:13:37;4.70;;;2.72;;
50337;SDS011;46221;51.178;5.900;2022-11-13T06:16:05;5.63;;;2.97;;
50337;SDS011;46221;51.178;5.900;2022-11-13T06:18:32;5.22;;;2.95;;
50337;SDS011;46221;51.178;5.900;2022-11-13T06:20:59;4.82;;;3.08;;
50337;SDS011;46221;51.178;5.900;2022-11-13T06:23:26;5.13;;;2.50;;
50337;SDS011;46221;51.178;5.900;2022-11-13T06:25:58;5.18;;;3.08;;
50337;SDS011;46221;51.178;5.900;2022-11-13T06:28:24;5.15;;;2.83;;
50337;SDS011;46221;51.178;5.900;2022-11-13T06:30:51;4.85;;;2.90;;
50337;SDS011;46221;51.178;5.900;2022-11-13T06:33:17;4.72;;;2.63;;
50337;SDS011;46221;51.178;5.900;2022-11-13T06:35:43;3.58;;;2.58;;
50337;SDS011;46221;51.178;5.900;2022-11-13T06:38:10;4.85;;;2.60;;
50337;SDS011;46221;51.178;5.900;2022-11-13T06:40:36;4.53;;;2.78;;
50337;SDS011;46221;51.178;5.900;2022-11-13T06:43:03;4.13;;;2.70;;
50337;SDS011;46221;51.178;5.900;2022-11-13T06:45:29;3.88;;;2.92;;
50337;SDS011;46221;51.178;5.900;2022-11-13T06:47:55;4.55;;;2.72;;
50337;SDS011;46221;51.178;5.900;2022-11-13T06:50:21;5.95;;;2.90;;
50337;SDS011;46221;51.178;5.900;2022-11-13T06:52:48;4.55;;;3.00;;
50337;SDS011;46221;51.178;5.900;2022-11-13T06:55:14;3.50;;;2.35;;
50337;SDS011;46221;51.178;5.900;2022-11-13T06:57:40;3.45;;;2.47;;
50337;SDS011;46221;51.178;5.900;2022-11-13T07:00:07;4.35;;;2.60;;
50337;SDS011;46221;51.178;5.900;2022-11-13T07:02:34;4.40;;;2.83;;
50337;SDS011;46221;51.178;5.900;2022-11-13T07:05:00;4.68;;;2.90;;
50337;SDS011;46221;51.178;5.900;2022-11-13T07:07:26;4.65;;;2.60;;
50337;SDS011;46221;51.178;5.900;2022-11-13T07:09:53;4.53;;;2.55;;
50337;SDS011;46221;51.178;5.900;2022-11-13T07:12:19;5.50;;;3.00;;
50337;SDS011;46221;51.178;5.900;2022-11-13T07:14:45;4.95;;;2.95;;
50337;SDS011;46221;51.178;5.900;2022-11-13T07:17:11;4.78;;;2.78;;
50337;SDS011;46221;51.178;5.900;2022-11-13T07:19:38;4.97;;;2.50;;
50337;SDS011;46221;51.178;5.900;2022-11-13T07:22:04;4.47;;;2.58;;
50337;SDS011;46221;51.178;5.900;2022-11-13T07:24:30;6.90;;;2.67;;
50337;SDS011;46221;51.178;5.900;2022-11-13T07:26:56;4.97;;;3.13;;
50337;SDS011;46221;51.178;5.900;2022-11-13T07:29:23;5.03;;;3.25;;
50337;SDS011;46221;51.178;5.900;2022-11-13T07:31:49;7.43;;;3.25;;
50337;SDS011;46221;51.178;5.900;2022-11-13T07:34:15;4.28;;;2.78;;
50337;SDS011;46221;51.178;5.900;2022-11-13T07:36:41;4.30;;;2.60;;
50337;SDS011;46221;51.178;5.900;2022-11-13T07:39:08;4.82;;;3.00;;
50337;SDS011;46221;51.178;5.900;2022-11-13T07:41:34;4.97;;;2.60;;
50337;SDS011;46221;51.178;5.900;2022-11-13T07:44:00;5.72;;;2.78;;
50337;SDS011;46221;51.178;5.900;2022-11-13T07:46:33;6.32;;;2.40;;
50337;SDS011;46221;51.178;5.900;2022-11-13T07:48:59;3.95;;;2.75;;
50337;SDS011;46221;51.178;5.900;2022-11-13T07:51:25;5.18;;;2.70;;
50337;SDS011;46221;51.178;5.900;2022-11-13T07:53:51;4.93;;;2.95;;
50337;SDS011;46221;51.178;5.900;2022-11-13T07:56:18;3.67;;;2.55;;
50337;SDS011;46221;51.178;5.900;2022-11-13T07:58:48;6.50;;;3.42;;
50337;SDS011;46221;51.178;5.900;2022-11-13T08:01:14;4.10;;;2.67;;
50337;SDS011;46221;51.178;5.900;2022-11-13T08:03:41;5.20;;;3.35;;
50337;SDS011;46221;51.178;5.900;2022-11-13T08:06:07;5.10;;;2.75;;
50337;SDS011;46221;51.178;5.900;2022-11-13T08:08:33;4.40;;;2.80;;
50337;SDS011;46221;51.178;5.900;2022-11-13T08:11:06;6.68;;;3.10;;
50337;SDS011;46221;51.178;5.900;2022-11-13T08:13:34;5.97;;;2.50;;
50337;SDS011;46221;51.178;5.900;2022-11-13T08:16:01;4.57;;;2.50;;
50337;SDS011;46221;51.178;5.900;2022-11-13T08:18:29;5.05;;;3.55;;
50337;SDS011;46221;51.178;5.900;2022-11-13T08:20:56;5.22;;;3.17;;
50337;SDS011;46221;51.178;5.900;2022-11-13T08:23:22;4.53;;;2.60;;
50337;SDS011;46221;51.178;5.900;2022-11-13T08:25:48;4.28;;;2.53;;
50337;SDS011;46221;51.178;5.900;2022-11-13T08:28:14;5.82;;;2.42;;
50337;SDS011;46221;51.178;5.900;2022-11-13T08:30:44;4.80;;;2.53;;
50337;SDS011;46221;51.178;5.900;2022-11-13T08:33:10;4.97;;;2.60;;
50337;SDS011;46221;51.178;5.900;2022-11-13T08:35:36;4.13;;;2.33;;
50337;SDS011;46221;51.178;5.900;2022-11-13T08:38:04;9.75;;;3.00;;
50337;SDS011;46221;51.178;5.900;2022-11-13T08:40:30;5.97;;;3.08;;
50337;SDS011;46221;51.178;5.900;2022-11-13T08:43:01;5.60;;;2.67;;
50337;SDS011;46221;51.178;5.900;2022-11-13T08:45:28;4.53;;;2.70;;
50337;SDS011;46221;51.178;5.900;2022-11-13T08:47:58;9.95;;;2.70;;
50337;SDS011;46221;51.178;5.900;2022-11-13T08:50:24;9.43;;;3.05;;
50337;SDS011;46221;51.178;5.900;2022-11-13T08:52:54;8.32;;;2.58;;
50337;SDS011;46221;51.178;5.900;2022-11-13T08:55:20;9.15;;;2.53;;
50337;SDS011;46221;51.178;5.900;2022-11-13T08:57:47;8.48;;;3.13;;
50337;SDS011;46221;51.178;5.900;2022-11-13T09:00:13;7.32;;;2.92;;
50337;SDS011;46221;51.178;5.900;2022-11-13T09:02:39;6.95;;;2.75;;
50337;SDS011;46221;51.178;5.900;2022-11-13T09:05:06;7.80;;;2.97;;
50337;SDS011;46221;51.178;5.900;2022-11-13T09:07:33;5.70;;;2.40;;
50337;SDS011;46221;51.178;5.900;2022-11-13T09:09:59;6.00;;;2.15;;
50337;SDS011;46221;51.178;5.900;2022-11-13T09:12:25;6.40;;;2.90;;
50337;SDS011;46221;51.178;5.900;2022-11-13T09:14:52;6.85;;;2.60;;
50337;SDS011;46221;51.178;5.900;2022-11-13T09:17:18;7.65;;;2.58;;
50337;SDS011;46221;51.178;5.900;2022-11-13T09:19:44;5.80;;;2.58;;
50337;SDS011;46221;51.178;5.900;2022-11-13T09:22:11;6.20;;;2.33;;
50337;SDS011;46221;51.178;5.900;2022-11-13T09:24:37;5.05;;;2.40;;
50337;SDS011;46221;51.178;5.900;2022-11-13T09:27:03;5.72;;;2.05;;
50337;SDS011;46221;51.178;5.900;2022-11-13T09:29:30;5.70;;;2.42;;
50337;SDS011;46221;51.178;5.900;2022-11-13T09:31:56;4.95;;;2.30;;
50337;SDS011;46221;51.178;5.900;2022-11-13T09:34:24;6.35;;;2.20;;
50337;SDS011;46221;51.178;5.900;2022-11-13T09:36:50;3.58;;;2.38;;
50337;SDS011;46221;51.178;5.900;2022-11-13T09:39:16;6.82;;;2.28;;
50337;SDS011;46221;51.178;5.900;2022-11-13T09:41:45;5.55;;;2.30;;
50337;SDS011;46221;51.178;5.900;2022-11-13T09:44:17;5.38;;;2.22;;
50337;SDS011;46221;51.178;5.900;2022-11-13T09:46:48;5.05;;;2.20;;
50337;SDS011;46221;51.178;5.900;2022-11-13T09:49:16;4.55;;;2.17;;
50337;SDS011;46221;51.178;5.900;2022-11-13T09:51:49;4.68;;;2.35;;
50337;SDS011;46221;51.178;5.900;2022-11-13T09:54:16;6.55;;;2.05;;
50337;SDS011;46221;51.178;5.900;2022-11-13T09:56:56;5.18;;;2.15;;
50337;SDS011;46221;51.178;5.900;2022-11-13T09:59:37;4.25;;;2.03;;
50337;SDS011;46221;51.178;5.900;2022-11-13T10:05:01;4.90;;;2.20;;
50337;SDS011;46221;51.178;5.900;2022-11-13T10:07:40;4.32;;;1.92;;
50337;SDS011;46221;51.178;5.900;2022-11-13T10:12:51;5.57;;;2.15;;
50337;SDS011;46221;51.178;5.900;2022-11-13T10:15:17;4.05;;;2.30;;
50337;SDS011;46221;51.178;5.900;2022-11-13T10:17:47;3.85;;;2.03;;
50337;SDS011;46221;51.178;5.900;2022-11-13T10:20:50;4.00;;;2.20;;
50337;SDS011;46221;51.178;5.900;2022-11-13T10:23:13;5.55;;;2.10;;
50337;SDS011;46221;51.178;5.900;2022-11-13T10:25:40;5.18;;;1.95;;
50337;SDS011;46221;51.178;5.900;2022-11-13T10:28:12;4.13;;;1.90;;
50337;SDS011;46221;51.178;5.900;2022-11-13T10:30:59;3.72;;;1.85;;
50337;SDS011;46221;51.178;5.900;2022-11-13T10:33:25;5.55;;;2.20;;
50337;SDS011;46221;51.178;5.900;2022-11-13T10:38:49;4.82;;;2.05;;
50337;SDS011;46221;51.178;5.900;2022-11-13T10:41:19;4.20;;;2.15;;
50337;SDS011;46221;51.178;5.900;2022-11-13T10:43:56;4.90;;;1.88;;
50337;SDS011;46221;51.178;5.900;2022-11-13T10:46:24;5.85;;;2.30;;
50337;SDS011;46221;51.178;5.900;2022-11-13T10:48:50;4.30;;;1.90;;
50337;SDS011;46221;51.178;5.900;2022-11-13T10:51:21;4.03;;;2.05;;
50337;SDS011;46221;51.178;5.900;2022-11-13T10:53:48;5.22;;;2.05;;
50337;SDS011;46221;51.178;5.900;2022-11-13T10:56:30;3.90;;;2.00;;
50337;SDS011;46221;51.178;5.900;2022-11-13T10:59:11;3.85;;;1.98;;
50337;SDS011;46221;51.178;5.900;2022-11-13T11:01:38;3.53;;;2.00;;
50337;SDS011;46221;51.178;5.900;2022-11-13T11:04:06;4.40;;;1.73;;
50337;SDS011;46221;51.178;5.900;2022-11-13T11:06:36;4.43;;;1.98;;
50337;SDS011;46221;51.178;5.900;2022-11-13T11:09:24;4.00;;;2.38;;
50337;SDS011;46221;51.178;5.900;2022-11-13T11:19:58;3.63;;;1.75;;
50337;SDS011;46221;51.178;5.900;2022-11-13T11:22:27;4.10;;;2.00;;
50337;SDS011;46221;51.178;5.900;2022-11-13T11:25:03;3.38;;;1.77;;
50337;SDS011;46221;51.178;5.900;2022-11-13T11:27:33;4.38;;;2.30;;
50337;SDS011;46221;51.178;5.900;2022-11-13T11:30:23;4.40;;;1.98;;
50337;SDS011;46221;51.178;5.900;2022-11-13T11:35:37;4.93;;;2.22;;
50337;SDS011;46221;51.178;5.900;2022-11-13T11:38:17;3.72;;;1.73;;
50337;SDS011;46221;51.178;5.900;2022-11-13T11:40:47;3.97;;;1.95;;
50337;SDS011;46221;51.178;5.900;2022-11-13T11:43:18;4.30;;;1.80;;
50337;SDS011;46221;51.178;5.900;2022-11-13T11:45:45;3.72;;;1.80;;
50337;SDS011;46221;51.178;5.900;2022-11-13T11:48:19;4.55;;;1.80;;
50337;SDS011;46221;51.178;5.900;2022-11-13T11:58:46;3.50;;;1.92;;
50337;SDS011;46221;51.178;5.900;2022-11-13T12:04:13;3.95;;;1.90;;
50337;SDS011;46221;51.178;5.900;2022-11-13T12:09:35;6.05;;;2.97;;
50337;SDS011;46221;51.178;5.900;2022-11-13T12:12:24;3.15;;;1.52;;
50337;SDS011;46221;51.178;5.900;2022-11-13T12:15:15;4.55;;;1.70;;
50337;SDS011;46221;51.178;5.900;2022-11-13T12:17:40;4.30;;;1.83;;
50337;SDS011;46221;51.178;5.900;2022-11-13T12:22:52;4.93;;;1.70;;
50337;SDS011;46221;51.178;5.900;2022-11-13T12:25:25;3.72;;;1.63;;
50337;SDS011;46221;51.178;5.900;2022-11-13T12:27:57;3.22;;;1.52;;
50337;SDS011;46221;51.178;5.900;2022-11-13T12:30:32;4.10;;;1.90;;
50337;SDS011;46221;51.178;5.900;2022-11-13T12:33:07;5.13;;;1.95;;
50337;SDS011;46221;51.178;5.900;2022-11-13T12:35:36;3.40;;;1.70;;
50337;SDS011;46221;51.178;5.900;2022-11-13T12:40:37;3.13;;;1.67;;
50337;SDS011;46221;51.178;5.900;2022-11-13T12:45:55;4.55;;;2.00;;
50337;SDS011;46221;51.178;5.900;2022-11-13T12:50:57;3.47;;;1.95;;
50337;SDS011;46221;51.178;5.900;2022-11-13T12:53:25;4.85;;;1.50;;
50337;SDS011;46221;51.178;5.900;2022-11-13T12:55:59;3.85;;;1.83;;
50337;SDS011;46221;51.178;5.900;2022-11-13T12:58:29;3.42;;;1.65;;
50337;SDS011;46221;51.178;5.900;2022-11-13T13:06:14;2.95;;;1.45;;
50337;SDS011;46221;51.178;5.900;2022-11-13T13:08:55;3.25;;;1.60;;
50337;SDS011;46221;51.178;5.900;2022-11-13T13:17:03;4.55;;;2.28;;
50337;SDS011;46221;51.178;5.900;2022-11-13T13:19:30;4.15;;;1.50;;
50337;SDS011;46221;51.178;5.900;2022-11-13T13:21:56;3.53;;;1.45;;
50337;SDS011;46221;51.178;5.900;2022-11-13T13:24:33;3.92;;;1.38;;
50337;SDS011;46221;51.178;5.900;2022-11-13T13:26:59;4.25;;;1.90;;
50337;SDS011;46221;51.178;5.900;2022-11-13T13:29:26;2.78;;;1.58;;
50337;SDS011;46221;51.178;5.900;2022-11-13T13:34:42;4.20;;;1.40;;
50337;SDS011;46221;51.178;5.900;2022-11-13T13:37:26;3.88;;;1.58;;
50337;SDS011;46221;51.178;5.900;2022-11-13T13:42:31;3.05;;;1.55;;
50337;SDS011;46221;51.178;5.900;2022-11-13T13:45:20;3.67;;;1.70;;
50337;SDS011;46221;51.178;5.900;2022-11-13T13:47:51;2.58;;;1.45;;
50337;SDS011;46221;51.178;5.900;2022-11-13T13:50:22;3.40;;;1.50;;
50337;SDS011;46221;51.178;5.900;2022-11-13T13:52:50;2.90;;;1.40;;
50337;SDS011;46221;51.178;5.900;2022-11-13T13:55:31;2.30;;;1.30;;
50337;SDS011;46221;51.178;5.900;2022-11-13T13:57:58;2.50;;;1.23;;
50337;SDS011;46221;51.178;5.900;2022-11-13T14:00:30;2.03;;;1.20;;
50337;SDS011;46221;51.178;5.900;2022-11-13T14:02:57;2.97;;;1.33;;
50337;SDS011;46221;51.178;5.900;2022-11-13T14:05:33;4.15;;;1.23;;
50337;SDS011;46221;51.178;5.900;2022-11-13T14:08:00;2.80;;;1.55;;
50337;SDS011;46221;51.178;5.900;2022-11-13T14:10:36;3.10;;;1.50;;
50337;SDS011;46221;51.178;5.900;2022-11-13T14:13:02;3.83;;;1.90;;
50337;SDS011;46221;51.178;5.900;2022-11-13T14:15:30;2.75;;;1.50;;
50337;SDS011;46221;51.178;5.900;2022-11-13T14:18:30;3.53;;;1.45;;
50337;SDS011;46221;51.178;5.900;2022-11-13T14:20:54;3.00;;;1.30;;
50337;SDS011;46221;51.178;5.900;2022-11-13T14:25:53;3.53;;;1.73;;
50337;SDS011;46221;51.178;5.900;2022-11-13T14:28:20;2.55;;;1.33;;
50337;SDS011;46221;51.178;5.900;2022-11-13T14:30:54;3.97;;;1.30;;
50337;SDS011;46221;51.178;5.900;2022-11-13T14:33:22;2.17;;;1.30;;
50337;SDS011;46221;51.178;5.900;2022-11-13T14:35:53;2.55;;;1.50;;
50337;SDS011;46221;51.178;5.900;2022-11-13T14:38:21;5.22;;;1.40;;
50337;SDS011;46221;51.178;5.900;2022-11-13T14:40:48;2.85;;;1.30;;
50337;SDS011;46221;51.178;5.900;2022-11-13T14:43:17;3.05;;;1.40;;
50337;SDS011;46221;51.178;5.900;2022-11-13T14:45:51;2.70;;;1.50;;
50337;SDS011;46221;51.178;5.900;2022-11-13T14:48:19;3.17;;;1.40;;
50337;SDS011;46221;51.178;5.900;2022-11-13T14:50:52;2.97;;;1.50;;
50337;SDS011;46221;51.178;5.900;2022-11-13T14:55:56;4.22;;;1.17;;
50337;SDS011;46221;51.178;5.900;2022-11-13T14:58:29;3.45;;;1.45;;
50337;SDS011;46221;51.178;5.900;2022-11-13T15:00:56;3.17;;;1.50;;
50337;SDS011;46221;51.178;5.900;2022-11-13T15:03:24;3.22;;;1.60;;
50337;SDS011;46221;51.178;5.900;2022-11-13T15:05:51;4.15;;;1.40;;
50337;SDS011;46221;51.178;5.900;2022-11-13T15:08:17;3.58;;;1.70;;
50337;SDS011;46221;51.178;5.900;2022-11-13T15:10:45;4.85;;;1.58;;
50337;SDS011;46221;51.178;5.900;2022-11-13T15:13:12;4.03;;;1.40;;
50337;SDS011;46221;51.178;5.900;2022-11-13T15:15:39;3.03;;;1.20;;
50337;SDS011;46221;51.178;5.900;2022-11-13T15:18:05;3.10;;;1.48;;
50337;SDS011;46221;51.178;5.900;2022-11-13T15:20:32;2.75;;;1.30;;
50337;SDS011;46221;51.178;5.900;2022-11-13T15:22:58;2.70;;;1.30;;
50337;SDS011;46221;51.178;5.900;2022-11-13T15:25:25;1.90;;;1.20;;
50337;SDS011;46221;51.178;5.900;2022-11-13T15:27:52;1.67;;;1.10;;
50337;SDS011;46221;51.178;5.900;2022-11-13T15:30:18;3.75;;;1.80;;
50337;SDS011;46221;51.178;5.900;2022-11-13T15:32:45;2.63;;;1.40;;
50337;SDS011;46221;51.178;5.900;2022-11-13T15:35:15;2.80;;;1.48;;
50337;SDS011;46221;51.178;5.900;2022-11-13T15:37:41;6.13;;;2.20;;
50337;SDS011;46221;51.178;5.900;2022-11-13T15:40:08;6.10;;;2.60;;
50337;SDS011;46221;51.178;5.900;2022-11-13T15:42:34;7.57;;;2.85;;
50337;SDS011;46221;51.178;5.900;2022-11-13T15:45:01;5.95;;;2.33;;
50337;SDS011;46221;51.178;5.900;2022-11-13T15:47:31;6.28;;;2.58;;
50337;SDS011;46221;51.178;5.900;2022-11-13T15:49:59;5.43;;;2.13;;
50337;SDS011;46221;51.178;5.900;2022-11-13T15:52:43;7.05;;;2.28;;
50337;SDS011;46221;51.178;5.900;2022-11-13T15:55:22;5.25;;;2.20;;
50337;SDS011;46221;51.178;5.900;2022-11-13T15:57:49;5.82;;;2.22;;
50337;SDS011;46221;51.178;5.900;2022-11-13T16:00:20;4.78;;;1.73;;
50337;SDS011;46221;51.178;5.900;2022-11-13T16:02:50;5.82;;;2.13;;
50337;SDS011;46221;51.178;5.900;2022-11-13T16:05:17;2.83;;;1.70;;